createdAt,value
2019-03-23T00:00:24.346Z,68.33
2019-03-23T00:00:55.547Z,68.33
2019-03-23T00:01:26.851Z,68.31
2019-03-23T00:01:58.077Z,68.40
2019-03-23T00:02:29.302Z,68.23
2019-03-23T00:03:00.510Z,68.19
2019-03-23T00:03:31.715Z,68.28
2019-03-23T00:04:02.940Z,68.50
2019-03-23T00:04:34.176Z,68.70
2019-03-23T00:05:05.403Z,68.67
2019-03-23T00:05:36.621Z,68.47
2019-03-23T00:06:07.877Z,68.46
2019-03-23T00:06:39.093Z,68.48
2019-03-23T00:07:10.299Z,68.47
2019-03-23T00:07:41.508Z,68.55
2019-03-23T00:08:12.722Z,68.84
2019-03-23T00:08:43.934Z,68.92
2019-03-23T00:09:15.165Z,68.85
2019-03-23T00:09:46.373Z,68.89
2019-03-23T00:10:17.577Z,69.12
2019-03-23T00:10:48.818Z,69.22
2019-03-23T00:11:20.065Z,69.14
2019-03-23T00:11:51.280Z,69.08
2019-03-23T00:12:22.485Z,69.07
2019-03-23T00:12:53.692Z,69.12
2019-03-23T00:13:24.909Z,69.09
2019-03-23T00:13:56.097Z,69.07
2019-03-23T00:14:27.311Z,68.92
2019-03-23T00:14:58.513Z,68.80
2019-03-23T00:15:30.657Z,68.75
2019-03-23T00:16:01.879Z,68.63
2019-03-23T00:16:33.131Z,68.37
2019-03-23T00:17:04.378Z,68.20
2019-03-23T00:17:35.651Z,68.22
2019-03-23T00:18:06.863Z,68.01
2019-03-23T00:18:38.079Z,67.99
2019-03-23T00:19:09.294Z,68.07
2019-03-23T00:19:40.515Z,68.01
2019-03-23T00:20:11.878Z,67.79
2019-03-23T00:20:43.085Z,67.78
2019-03-23T00:21:14.341Z,67.74
2019-03-23T00:21:45.613Z,67.73
2019-03-23T00:22:16.827Z,67.76
2019-03-23T00:22:48.033Z,67.68
2019-03-23T00:23:19.243Z,67.58
2019-03-23T00:23:50.455Z,67.55
2019-03-23T00:24:21.673Z,67.57
2019-03-23T00:24:52.882Z,67.56
2019-03-23T00:25:24.071Z,67.61
2019-03-23T00:25:55.275Z,67.52
2019-03-23T00:26:26.471Z,67.36
2019-03-23T00:26:57.713Z,67.37
2019-03-23T00:27:28.918Z,67.26
2019-03-23T00:28:00.151Z,67.23
2019-03-23T00:28:31.366Z,67.29
2019-03-23T00:29:02.575Z,67.26
2019-03-23T00:29:33.779Z,67.23
2019-03-23T00:30:05.042Z,67.14
2019-03-23T00:30:36.249Z,67.05
2019-03-23T00:31:07.458Z,67.06
2019-03-23T00:31:38.672Z,66.87
2019-03-23T00:32:09.887Z,66.78
2019-03-23T00:32:41.132Z,66.86
2019-03-23T00:33:12.353Z,66.72
2019-03-23T00:33:43.542Z,66.48
2019-03-23T00:34:14.749Z,66.42
2019-03-23T00:34:46.000Z,66.24
2019-03-23T00:35:17.220Z,66.14
2019-03-23T00:35:48.429Z,65.97
2019-03-23T00:36:19.684Z,65.90
2019-03-23T00:36:50.892Z,65.77
2019-03-23T00:37:22.090Z,65.72
2019-03-23T00:37:53.308Z,65.72
2019-03-23T00:38:24.565Z,65.73
2019-03-23T00:38:55.770Z,65.67
2019-03-23T00:39:27.023Z,65.73
2019-03-23T00:39:58.247Z,65.78
2019-03-23T00:40:29.452Z,65.86
2019-03-23T00:41:00.722Z,65.89
2019-03-23T00:41:31.929Z,65.94
2019-03-23T00:42:03.135Z,66.00
2019-03-23T00:42:34.337Z,66.00
2019-03-23T00:43:05.554Z,65.92
2019-03-23T00:43:36.757Z,65.90
2019-03-23T00:44:07.960Z,66.09
2019-03-23T00:44:39.168Z,66.35
2019-03-23T00:45:10.374Z,66.25
2019-03-23T00:45:41.613Z,66.19
2019-03-23T00:46:12.866Z,66.30
2019-03-23T00:46:44.106Z,66.50
2019-03-23T00:47:15.310Z,66.37
2019-03-23T00:47:46.510Z,66.54
2019-03-23T00:48:17.715Z,66.59
2019-03-23T00:48:48.953Z,66.78
2019-03-23T00:49:20.166Z,66.61
2019-03-23T00:49:51.372Z,66.48
2019-03-23T00:50:22.570Z,66.29
2019-03-23T00:50:53.772Z,66.04
2019-03-23T00:51:25.038Z,66.03
2019-03-23T00:51:56.246Z,65.95
2019-03-23T00:52:27.457Z,66.61
2019-03-23T00:52:58.665Z,66.75
2019-03-23T00:53:29.868Z,66.72
2019-03-23T00:54:01.088Z,66.21
2019-03-23T00:54:32.286Z,65.89
2019-03-23T00:55:03.488Z,65.61
2019-03-23T00:55:34.701Z,65.09
2019-03-23T00:56:05.934Z,65.28
2019-03-23T00:56:37.184Z,65.06
2019-03-23T00:57:08.381Z,64.88
2019-03-23T00:57:39.581Z,64.88
2019-03-23T00:58:10.791Z,64.89
2019-03-23T00:58:42.119Z,65.23
2019-03-23T00:59:13.380Z,65.70
2019-03-23T00:59:44.580Z,65.29
2019-03-23T01:00:15.785Z,65.04
2019-03-23T01:00:46.990Z,64.70
2019-03-23T01:01:18.197Z,64.42
2019-03-23T01:01:49.406Z,64.26
2019-03-23T01:02:20.614Z,64.25
2019-03-23T01:02:51.812Z,64.51
2019-03-23T01:03:23.012Z,64.70
2019-03-23T01:03:54.238Z,64.57
2019-03-23T01:04:25.499Z,64.70
2019-03-23T01:04:56.689Z,64.81
2019-03-23T01:05:27.936Z,65.13
2019-03-23T01:05:59.136Z,65.23
2019-03-23T01:06:30.339Z,65.21
2019-03-23T01:07:01.535Z,64.93
2019-03-23T01:07:32.751Z,64.95
2019-03-23T01:08:03.970Z,64.85
2019-03-23T01:08:35.168Z,64.83
2019-03-23T01:09:06.380Z,64.98
2019-03-23T01:09:37.642Z,64.91
2019-03-23T01:10:08.854Z,64.59
2019-03-23T01:10:40.055Z,64.51
2019-03-23T01:11:11.257Z,64.52
2019-03-23T01:11:42.460Z,64.53
2019-03-23T01:12:13.655Z,64.40
2019-03-23T01:12:44.854Z,64.06
2019-03-23T01:13:16.050Z,63.82
2019-03-23T01:13:47.253Z,63.67
2019-03-23T01:14:18.593Z,63.52
2019-03-23T01:14:49.804Z,63.45
2019-03-23T01:15:21.005Z,63.29
2019-03-23T01:15:52.235Z,63.45
2019-03-23T01:16:23.421Z,63.40
2019-03-23T01:16:54.630Z,63.33
2019-03-23T01:17:25.833Z,63.76
2019-03-23T01:17:57.043Z,63.86
2019-03-23T01:18:28.241Z,63.72
2019-03-23T01:18:59.506Z,63.94
2019-03-23T01:19:30.711Z,63.72
2019-03-23T01:20:01.921Z,63.80
2019-03-23T01:20:33.117Z,64.01
2019-03-23T01:21:04.365Z,64.04
2019-03-23T01:21:35.612Z,63.95
2019-03-23T01:22:06.825Z,63.96
2019-03-23T01:22:38.035Z,64.28
2019-03-23T01:23:09.239Z,64.18
2019-03-23T01:23:40.456Z,63.86
2019-03-23T01:24:11.673Z,64.22
2019-03-23T01:24:42.879Z,64.73
2019-03-23T01:25:14.128Z,65.28
2019-03-23T01:25:45.345Z,64.40
2019-03-23T01:26:16.608Z,63.71
2019-03-23T01:26:47.840Z,64.01
2019-03-23T01:27:19.049Z,63.50
2019-03-23T01:27:50.259Z,63.02
2019-03-23T01:28:21.467Z,62.97
2019-03-23T01:28:52.677Z,63.31
2019-03-23T01:29:23.887Z,63.52
2019-03-23T01:29:55.079Z,63.36
2019-03-23T01:30:26.330Z,63.47
2019-03-23T01:30:57.539Z,63.31
2019-03-23T01:31:28.748Z,63.83
2019-03-23T01:31:59.959Z,64.33
2019-03-23T01:32:31.173Z,63.88
2019-03-23T01:33:02.386Z,63.63
2019-03-23T01:33:33.588Z,63.51
2019-03-23T01:34:04.798Z,64.56
2019-03-23T01:34:36.005Z,63.90
2019-03-23T01:35:07.207Z,63.76
2019-03-23T01:35:38.286Z,63.60
2019-03-23T01:36:09.494Z,63.49
2019-03-23T01:36:40.710Z,63.69
2019-03-23T01:37:11.928Z,63.52
2019-03-23T01:37:43.135Z,63.89
2019-03-23T01:38:14.333Z,63.81
2019-03-23T01:38:45.538Z,63.81
2019-03-23T01:39:16.758Z,63.62
2019-03-23T01:39:47.983Z,63.74
2019-03-23T01:40:19.192Z,64.49
2019-03-23T01:40:50.452Z,64.17
2019-03-23T01:41:21.655Z,64.38
2019-03-23T01:41:52.883Z,64.19
2019-03-23T01:42:24.085Z,63.90
2019-03-23T01:42:55.305Z,64.02
2019-03-23T01:43:26.511Z,64.49
2019-03-23T01:43:57.710Z,64.49
2019-03-23T01:44:28.917Z,65.13
2019-03-23T01:45:00.316Z,65.23
2019-03-23T01:45:31.562Z,64.65
2019-03-23T01:46:02.810Z,64.41
2019-03-23T01:46:34.060Z,64.51
2019-03-23T01:47:05.266Z,64.59
2019-03-23T01:47:36.503Z,64.61
2019-03-23T01:48:07.722Z,64.71
2019-03-23T01:48:39.327Z,64.80
2019-03-23T01:49:10.574Z,65.00
2019-03-23T01:49:41.760Z,64.86
2019-03-23T01:50:12.971Z,64.90
2019-03-23T01:50:44.166Z,64.96
2019-03-23T01:51:15.365Z,65.04
2019-03-23T01:51:46.612Z,65.22
2019-03-23T01:52:17.817Z,65.31
2019-03-23T01:52:49.037Z,65.40
2019-03-23T01:53:20.244Z,65.41
2019-03-23T01:53:51.455Z,65.47
2019-03-23T01:54:22.651Z,65.50
2019-03-23T01:54:53.844Z,65.60
2019-03-23T01:55:25.042Z,65.71
2019-03-23T01:55:56.254Z,65.79
2019-03-23T01:56:27.519Z,65.79
2019-03-23T01:56:58.723Z,65.68
2019-03-23T01:57:29.936Z,65.70
2019-03-23T01:58:01.160Z,65.90
2019-03-23T01:58:32.383Z,65.98
2019-03-23T01:59:03.594Z,66.09
2019-03-23T01:59:34.834Z,66.20
2019-03-23T02:00:06.074Z,66.24
2019-03-23T02:00:37.284Z,66.32
2019-03-23T02:01:08.499Z,66.46
2019-03-23T02:01:39.700Z,66.53
2019-03-23T02:02:10.894Z,66.61
2019-03-23T02:02:42.113Z,66.67
2019-03-23T02:03:13.316Z,66.73
2019-03-23T02:03:44.523Z,66.83
2019-03-23T02:04:15.739Z,66.85
2019-03-23T02:04:47.027Z,66.99
2019-03-23T02:05:18.228Z,67.07
2019-03-23T02:05:49.419Z,67.18
2019-03-23T02:06:20.666Z,67.20
2019-03-23T02:06:51.878Z,67.33
2019-03-23T02:07:23.087Z,67.47
2019-03-23T02:07:54.296Z,67.58
2019-03-23T02:08:25.509Z,67.68
2019-03-23T02:08:56.708Z,67.64
2019-03-23T02:09:27.906Z,67.78
2019-03-23T02:09:59.140Z,67.97
2019-03-23T02:10:30.399Z,67.88
2019-03-23T02:11:01.601Z,67.84
2019-03-23T02:11:32.863Z,67.71
2019-03-23T02:12:04.079Z,67.66
2019-03-23T02:12:35.304Z,67.57
2019-03-23T02:13:06.515Z,67.31
2019-03-23T02:13:37.724Z,67.01
2019-03-23T02:14:08.987Z,67.00
2019-03-23T02:14:40.165Z,67.05
2019-03-23T02:15:11.386Z,67.08
2019-03-23T02:15:42.629Z,67.11
2019-03-23T02:16:13.835Z,67.11
2019-03-23T02:16:45.039Z,67.05
2019-03-23T02:17:16.278Z,67.01
2019-03-23T02:17:47.477Z,67.11
2019-03-23T02:18:18.688Z,67.15
2019-03-23T02:18:49.890Z,67.18
2019-03-23T02:19:21.096Z,67.19
2019-03-23T02:19:52.344Z,67.08
2019-03-23T02:20:23.535Z,67.06
2019-03-23T02:20:54.771Z,67.11
2019-03-23T02:21:25.973Z,67.13
2019-03-23T02:21:57.175Z,67.21
2019-03-23T02:22:28.445Z,67.20
2019-03-23T02:22:59.663Z,67.06
2019-03-23T02:23:30.871Z,66.91
2019-03-23T02:24:02.074Z,67.04
2019-03-23T02:24:33.274Z,67.04
2019-03-23T02:25:04.493Z,67.09
2019-03-23T02:25:35.696Z,67.16
2019-03-23T02:26:06.900Z,67.10
2019-03-23T02:26:38.139Z,67.09
2019-03-23T02:27:09.307Z,67.09
2019-03-23T02:27:40.551Z,67.10
2019-03-23T02:28:11.752Z,67.36
2019-03-23T02:28:42.970Z,67.44
2019-03-23T02:29:14.226Z,67.24
2019-03-23T02:29:45.415Z,67.10
2019-03-23T02:30:16.640Z,67.15
2019-03-23T02:30:47.843Z,67.22
2019-03-23T02:31:19.041Z,67.20
2019-03-23T02:31:50.244Z,67.08
2019-03-23T02:32:21.473Z,67.03
2019-03-23T02:32:52.682Z,67.01
2019-03-23T02:33:23.894Z,66.97
2019-03-23T02:33:55.097Z,67.28
2019-03-23T02:34:26.333Z,67.24
2019-03-23T02:34:57.534Z,67.29
2019-03-23T02:35:28.762Z,67.27
2019-03-23T02:35:59.986Z,67.27
2019-03-23T02:36:31.204Z,67.40
2019-03-23T02:37:02.406Z,67.39
2019-03-23T02:37:33.589Z,67.35
2019-03-23T02:38:04.798Z,67.28
2019-03-23T02:38:36.005Z,67.21
2019-03-23T02:39:07.248Z,67.11
2019-03-23T02:39:38.466Z,67.12
2019-03-23T02:40:09.680Z,67.14
2019-03-23T02:40:40.889Z,67.17
2019-03-23T02:41:12.094Z,67.26
2019-03-23T02:41:43.338Z,67.43
2019-03-23T02:42:14.547Z,67.47
2019-03-23T02:42:45.769Z,67.46
2019-03-23T02:43:16.976Z,67.41
2019-03-23T02:43:48.173Z,67.39
2019-03-23T02:44:19.396Z,67.44
2019-03-23T02:44:50.612Z,67.50
2019-03-23T02:45:21.899Z,67.67
2019-03-23T02:45:54.203Z,67.88
2019-03-23T02:46:25.418Z,68.49
2019-03-23T02:46:56.640Z,67.79
2019-03-23T02:47:27.850Z,67.48
2019-03-23T02:47:59.085Z,67.13
2019-03-23T02:48:30.336Z,66.69
2019-03-23T02:49:01.542Z,66.46
2019-03-23T02:49:32.741Z,66.42
2019-03-23T02:50:03.955Z,66.47
2019-03-23T02:50:35.159Z,66.49
2019-03-23T02:51:06.363Z,66.43
2019-03-23T02:51:39.748Z,66.39
2019-03-23T02:52:10.501Z,66.48
2019-03-23T02:52:41.708Z,66.55
2019-03-23T02:53:12.904Z,66.46
2019-03-23T02:53:44.163Z,66.42
2019-03-23T02:54:15.394Z,66.42
2019-03-23T02:54:46.663Z,66.33
2019-03-23T02:55:17.865Z,66.20
2019-03-23T02:55:49.057Z,66.15
2019-03-23T02:56:20.260Z,66.14
2019-03-23T02:56:51.470Z,66.15
2019-03-23T02:57:22.684Z,66.21
2019-03-23T02:57:53.946Z,66.39
2019-03-23T02:58:25.157Z,66.53
2019-03-23T02:58:56.347Z,66.61
2019-03-23T02:59:27.586Z,66.58
2019-03-23T02:59:58.795Z,66.53
2019-03-23T03:00:29.992Z,66.49
2019-03-23T03:01:01.219Z,66.51
2019-03-23T03:01:32.421Z,66.58
2019-03-23T03:02:03.669Z,66.62
2019-03-23T03:02:34.898Z,66.65
2019-03-23T03:03:06.114Z,66.74
2019-03-23T03:03:37.315Z,66.75
2019-03-23T03:04:08.598Z,66.84
2019-03-23T03:04:39.804Z,67.08
2019-03-23T03:05:11.011Z,67.40
2019-03-23T03:05:42.246Z,67.76
2019-03-23T03:06:13.453Z,67.88
2019-03-23T03:06:44.724Z,68.06
2019-03-23T03:07:15.934Z,68.16
2019-03-23T03:07:47.154Z,68.07
2019-03-23T03:08:18.349Z,68.08
2019-03-23T03:08:49.559Z,68.15
2019-03-23T03:09:20.781Z,68.23
2019-03-23T03:09:52.047Z,68.42
2019-03-23T03:10:23.270Z,68.56
2019-03-23T03:10:54.466Z,68.80
2019-03-23T03:11:25.662Z,68.90
2019-03-23T03:11:56.899Z,69.02
2019-03-23T03:12:28.067Z,69.10
2019-03-23T03:12:59.261Z,69.19
2019-03-23T03:13:30.498Z,69.32
2019-03-23T03:14:01.686Z,69.51
2019-03-23T03:14:32.899Z,69.53
2019-03-23T03:15:04.135Z,69.83
2019-03-23T03:15:35.359Z,69.95
2019-03-23T03:16:06.552Z,70.26
2019-03-23T03:16:37.837Z,70.08
2019-03-23T03:17:09.051Z,70.00
2019-03-23T03:17:40.274Z,69.68
2019-03-23T03:18:11.481Z,69.51
2019-03-23T03:18:42.698Z,69.55
2019-03-23T03:19:13.938Z,68.87
2019-03-23T03:19:45.147Z,68.47
2019-03-23T03:20:16.344Z,68.33
2019-03-23T03:20:47.553Z,68.25
2019-03-23T03:21:18.752Z,68.56
2019-03-23T03:21:49.957Z,69.08
2019-03-23T03:22:21.162Z,69.42
2019-03-23T03:22:52.364Z,69.75
2019-03-23T03:23:23.599Z,69.81
2019-03-23T03:23:54.845Z,70.29
2019-03-23T03:24:26.087Z,70.28
2019-03-23T03:24:57.335Z,70.20
2019-03-23T03:25:28.546Z,70.01
2019-03-23T03:25:59.757Z,69.66
2019-03-23T03:26:30.976Z,69.73
2019-03-23T03:27:02.177Z,69.54
2019-03-23T03:27:33.393Z,69.67
2019-03-23T03:28:04.598Z,69.51
2019-03-23T03:28:35.847Z,69.55
2019-03-23T03:29:07.051Z,69.37
2019-03-23T03:29:38.270Z,69.19
2019-03-23T03:30:09.465Z,68.92
2019-03-23T03:30:40.670Z,68.83
2019-03-23T03:31:11.905Z,69.00
2019-03-23T03:31:43.139Z,69.17
2019-03-23T03:32:14.360Z,69.35
2019-03-23T03:32:45.843Z,69.67
2019-03-23T03:33:17.038Z,69.84
2019-03-23T03:33:48.290Z,69.79
2019-03-23T03:34:19.526Z,69.86
2019-03-23T03:34:50.755Z,69.90
2019-03-23T03:35:22.013Z,70.03
2019-03-23T03:35:53.204Z,70.14
2019-03-23T03:36:24.479Z,70.32
2019-03-23T03:36:55.662Z,70.49
2019-03-23T03:37:26.880Z,70.67
2019-03-23T03:37:58.100Z,70.92
2019-03-23T03:38:29.298Z,70.98
2019-03-23T03:39:00.563Z,71.10
2019-03-23T03:39:31.799Z,71.17
2019-03-23T03:40:03.038Z,71.36
2019-03-23T03:40:34.254Z,71.34
2019-03-23T03:41:05.473Z,71.58
2019-03-23T03:41:36.676Z,71.61
2019-03-23T03:42:07.919Z,71.72
2019-03-23T03:42:39.121Z,72.08
2019-03-23T03:43:10.352Z,72.37
2019-03-23T03:43:41.572Z,72.67
2019-03-23T03:44:12.770Z,72.32
2019-03-23T03:44:44.010Z,72.47
2019-03-23T03:45:15.214Z,71.90
2019-03-23T03:45:46.417Z,72.23
2019-03-23T03:46:17.642Z,71.92
2019-03-23T03:46:48.883Z,71.05
2019-03-23T03:47:20.140Z,70.73
2019-03-23T03:47:51.343Z,70.92
2019-03-23T03:48:22.555Z,70.64
2019-03-23T03:48:53.758Z,70.53
2019-03-23T03:49:24.974Z,70.78
2019-03-23T03:49:56.163Z,70.86
2019-03-23T03:50:27.417Z,70.94
2019-03-23T03:50:58.638Z,71.48
2019-03-23T03:51:29.843Z,71.49
2019-03-23T03:52:01.049Z,70.98
2019-03-23T03:52:32.262Z,71.04
2019-03-23T03:53:03.488Z,71.52
2019-03-23T03:53:34.742Z,71.55
2019-03-23T03:54:05.965Z,71.65
2019-03-23T03:54:37.167Z,71.59
2019-03-23T03:55:08.385Z,71.55
2019-03-23T03:55:39.587Z,72.37
2019-03-23T03:56:10.803Z,72.36
2019-03-23T03:56:42.016Z,72.44
2019-03-23T03:57:13.241Z,72.63
2019-03-23T03:57:44.478Z,72.94
2019-03-23T03:58:15.676Z,72.16
2019-03-23T03:58:47.061Z,72.25
2019-03-23T03:59:18.281Z,72.67
2019-03-23T03:59:50.460Z,73.00
2019-03-23T04:00:21.681Z,72.47
2019-03-23T04:00:52.889Z,71.99
2019-03-23T04:01:24.102Z,71.85
2019-03-23T04:01:55.313Z,72.19
2019-03-23T04:02:26.575Z,72.94
2019-03-23T04:02:57.786Z,72.29
2019-03-23T04:03:28.985Z,73.04
2019-03-23T04:04:00.196Z,72.98
2019-03-23T04:04:31.406Z,72.12
2019-03-23T04:05:02.605Z,72.17
2019-03-23T04:05:33.809Z,72.40
2019-03-23T04:06:05.007Z,72.73
2019-03-23T04:06:36.215Z,73.31
2019-03-23T04:07:07.419Z,73.19
2019-03-23T04:07:38.661Z,72.76
2019-03-23T04:08:11.941Z,72.63
2019-03-23T04:08:42.799Z,72.31
2019-03-23T04:09:14.001Z,73.67
2019-03-23T04:09:45.218Z,73.07
2019-03-23T04:10:16.441Z,73.40
2019-03-23T04:10:47.646Z,72.64
2019-03-23T04:11:18.885Z,72.91
2019-03-23T04:11:50.089Z,73.13
2019-03-23T04:12:21.305Z,72.75
2019-03-23T04:12:52.489Z,72.17
2019-03-23T04:13:23.708Z,71.30
2019-03-23T04:13:54.943Z,71.79
2019-03-23T04:14:26.157Z,71.53
2019-03-23T04:14:57.347Z,71.19
2019-03-23T04:15:28.554Z,72.69
2019-03-23T04:15:59.757Z,72.56
2019-03-23T04:16:30.999Z,71.75
2019-03-23T04:17:02.187Z,71.61
2019-03-23T04:17:33.406Z,72.23
2019-03-23T04:18:04.616Z,71.94
2019-03-23T04:18:35.881Z,71.67
2019-03-23T04:19:07.091Z,71.76
2019-03-23T04:19:38.296Z,71.56
2019-03-23T04:20:09.544Z,71.32
2019-03-23T04:20:40.787Z,71.33
2019-03-23T04:21:12.000Z,71.45
2019-03-23T04:21:43.199Z,71.98
2019-03-23T04:22:14.406Z,71.95
2019-03-23T04:22:45.640Z,72.07
2019-03-23T04:23:16.839Z,72.17
2019-03-23T04:23:48.055Z,72.32
2019-03-23T04:24:19.282Z,72.51
2019-03-23T04:24:50.462Z,73.39
2019-03-23T04:25:21.694Z,73.28
2019-03-23T04:25:52.932Z,73.48
2019-03-23T04:26:24.142Z,73.59
2019-03-23T04:26:55.387Z,73.66
2019-03-23T04:27:26.574Z,74.12
2019-03-23T04:27:57.791Z,74.19
2019-03-23T04:28:28.980Z,73.95
2019-03-23T04:29:00.202Z,74.19
2019-03-23T04:29:31.393Z,74.24
2019-03-23T04:30:02.597Z,74.34
2019-03-23T04:30:33.982Z,74.24
2019-03-23T04:31:05.227Z,74.23
2019-03-23T04:31:36.449Z,74.12
2019-03-23T04:32:07.653Z,73.79
2019-03-23T04:32:38.897Z,74.33
2019-03-23T04:33:10.108Z,74.29
2019-03-23T04:33:41.307Z,74.09
2019-03-23T04:34:12.513Z,73.38
2019-03-23T04:34:43.711Z,73.16
2019-03-23T04:35:14.927Z,72.99
2019-03-23T04:35:46.139Z,72.82
2019-03-23T04:36:17.341Z,72.56
2019-03-23T04:36:48.542Z,72.35
2019-03-23T04:37:19.756Z,72.11
2019-03-23T04:37:51.016Z,71.93
2019-03-23T04:38:23.310Z,71.87
2019-03-23T04:38:54.723Z,71.81
2019-03-23T04:39:25.929Z,72.05
2019-03-23T04:39:57.130Z,72.22
2019-03-23T04:40:28.328Z,71.93
2019-03-23T04:40:59.535Z,71.63
2019-03-23T04:41:30.801Z,71.49
2019-03-23T04:42:01.994Z,71.29
2019-03-23T04:42:33.222Z,71.20
2019-03-23T04:43:04.433Z,71.13
2019-03-23T04:43:35.687Z,70.96
2019-03-23T04:44:06.886Z,70.81
2019-03-23T04:44:38.097Z,70.63
2019-03-23T04:45:09.309Z,70.45
2019-03-23T04:45:40.587Z,70.22
2019-03-23T04:46:11.810Z,70.07
2019-03-23T04:46:43.983Z,69.90
2019-03-23T04:47:15.364Z,69.66
2019-03-23T04:47:47.059Z,69.38
2019-03-23T04:48:18.329Z,69.06
2019-03-23T04:48:49.602Z,68.79
2019-03-23T04:49:20.818Z,68.46
2019-03-23T04:49:52.043Z,68.25
2019-03-23T04:50:23.240Z,68.05
2019-03-23T04:50:54.445Z,67.73
2019-03-23T04:51:25.662Z,67.25
2019-03-23T04:51:56.861Z,66.95
2019-03-23T04:52:28.108Z,66.66
2019-03-23T04:52:59.320Z,66.34
2019-03-23T04:53:30.544Z,66.08
2019-03-23T04:54:01.747Z,65.40
2019-03-23T04:54:32.955Z,65.05
2019-03-23T04:55:04.170Z,64.72
2019-03-23T04:55:35.378Z,63.98
2019-03-23T04:56:06.572Z,63.78
2019-03-23T04:56:37.775Z,63.22
2019-03-23T04:57:09.991Z,62.97
2019-03-23T04:57:41.228Z,62.58
2019-03-23T04:58:12.437Z,62.51
2019-03-23T04:58:43.634Z,62.66
2019-03-23T04:59:14.843Z,62.63
2019-03-23T04:59:46.065Z,62.09
2019-03-23T05:00:17.278Z,61.47
2019-03-23T05:00:48.528Z,61.29
2019-03-23T05:01:19.739Z,61.09
2019-03-23T05:01:50.939Z,60.70
2019-03-23T05:02:22.237Z,59.90
2019-03-23T05:02:53.437Z,59.73
2019-03-23T05:03:24.653Z,59.47
2019-03-23T05:03:55.910Z,59.28
2019-03-23T05:04:27.104Z,58.92
2019-03-23T05:04:58.369Z,58.98
2019-03-23T05:05:29.569Z,59.14
2019-03-23T05:06:00.772Z,59.17
2019-03-23T05:06:32.031Z,59.15
2019-03-23T05:07:03.232Z,59.34
2019-03-23T05:07:34.471Z,59.34
2019-03-23T05:08:05.690Z,59.42
2019-03-23T05:08:36.912Z,59.06
2019-03-23T05:09:08.122Z,58.79
2019-03-23T05:09:39.323Z,58.71
2019-03-23T05:10:10.516Z,58.36
2019-03-23T05:10:41.722Z,58.09
2019-03-23T05:11:12.966Z,58.15
2019-03-23T05:11:44.169Z,58.15
2019-03-23T05:12:15.365Z,58.29
2019-03-23T05:12:46.570Z,58.43
2019-03-23T05:13:17.769Z,58.69
2019-03-23T05:13:49.010Z,58.71
2019-03-23T05:14:20.208Z,58.62
2019-03-23T05:14:51.450Z,58.57
2019-03-23T05:15:22.665Z,58.33
2019-03-23T05:15:53.854Z,58.14
2019-03-23T05:16:25.057Z,57.99
2019-03-23T05:16:56.261Z,58.03
2019-03-23T05:17:27.461Z,58.03
2019-03-23T05:17:58.670Z,58.07
2019-03-23T05:18:29.866Z,58.07
2019-03-23T05:19:01.119Z,57.99
2019-03-23T05:19:32.332Z,57.96
2019-03-23T05:20:03.529Z,58.15
2019-03-23T05:20:34.737Z,58.00
2019-03-23T05:21:06.096Z,58.06
2019-03-23T05:21:37.321Z,58.24
2019-03-23T05:22:08.539Z,58.30
2019-03-23T05:22:39.941Z,58.34
2019-03-23T05:23:11.149Z,58.47
2019-03-23T05:23:42.215Z,58.60
2019-03-23T05:24:13.437Z,58.81
2019-03-23T05:24:44.642Z,59.05
2019-03-23T05:25:15.870Z,59.30
2019-03-23T05:25:47.074Z,59.89
2019-03-23T05:26:18.270Z,60.32
2019-03-23T05:26:49.478Z,60.20
2019-03-23T05:27:20.675Z,59.92
2019-03-23T05:27:51.938Z,59.55
2019-03-23T05:28:23.150Z,59.23
2019-03-23T05:28:54.363Z,59.04
2019-03-23T05:29:25.574Z,59.12
2019-03-23T05:29:56.773Z,59.28
2019-03-23T05:30:27.991Z,59.30
2019-03-23T05:30:59.233Z,59.32
2019-03-23T05:31:30.434Z,59.06
2019-03-23T05:32:01.642Z,59.23
2019-03-23T05:32:32.860Z,59.13
2019-03-23T05:33:04.056Z,59.19
2019-03-23T05:33:35.273Z,59.32
2019-03-23T05:34:06.490Z,59.36
2019-03-23T05:34:37.692Z,59.36
2019-03-23T05:35:08.901Z,59.06
2019-03-23T05:35:40.111Z,59.14
2019-03-23T05:36:11.380Z,59.19
2019-03-23T05:36:42.584Z,59.34
2019-03-23T05:37:13.788Z,59.44
2019-03-23T05:37:44.986Z,59.19
2019-03-23T05:38:16.185Z,59.00
2019-03-23T05:38:47.391Z,59.12
2019-03-23T05:39:18.595Z,59.33
2019-03-23T05:39:49.802Z,59.33
2019-03-23T05:40:21.056Z,59.32
2019-03-23T05:40:52.268Z,59.24
2019-03-23T05:41:23.478Z,59.26
2019-03-23T05:41:54.670Z,59.11
2019-03-23T05:42:25.884Z,58.94
2019-03-23T05:42:57.128Z,59.02
2019-03-23T05:43:28.366Z,59.01
2019-03-23T05:43:59.589Z,58.54
2019-03-23T05:44:30.843Z,58.49
2019-03-23T05:45:02.046Z,58.53
2019-03-23T05:45:33.348Z,58.36
2019-03-23T05:46:04.529Z,58.23
2019-03-23T05:46:35.738Z,58.12
2019-03-23T05:47:06.936Z,57.94
2019-03-23T05:47:38.148Z,57.80
2019-03-23T05:48:09.383Z,57.72
2019-03-23T05:48:40.599Z,57.44
2019-03-23T05:49:11.880Z,57.35
2019-03-23T05:49:43.139Z,57.23
2019-03-23T05:50:14.346Z,56.64
2019-03-23T05:50:45.611Z,56.55
2019-03-23T05:51:16.809Z,56.41
2019-03-23T05:51:48.009Z,56.43
2019-03-23T05:52:19.221Z,56.27
2019-03-23T05:52:50.611Z,56.13
2019-03-23T05:53:21.831Z,55.92
2019-03-23T05:53:53.032Z,55.67
2019-03-23T05:54:24.244Z,55.86
2019-03-23T05:54:55.461Z,55.69
2019-03-23T05:55:26.707Z,55.55
2019-03-23T05:55:57.961Z,55.50
2019-03-23T05:56:29.168Z,55.42
2019-03-23T05:57:00.388Z,55.46
2019-03-23T05:57:31.625Z,55.28
2019-03-23T05:58:02.859Z,55.14
2019-03-23T05:58:34.094Z,55.06
2019-03-23T05:59:05.315Z,54.93
2019-03-23T05:59:36.520Z,54.82
2019-03-23T06:00:07.734Z,54.95
2019-03-23T06:00:38.938Z,54.86
2019-03-23T06:01:10.154Z,55.00
2019-03-23T06:01:41.416Z,54.99
2019-03-23T06:02:12.629Z,55.01
2019-03-23T06:02:43.847Z,54.74
2019-03-23T06:03:15.107Z,54.74
2019-03-23T06:03:46.372Z,54.71
2019-03-23T06:04:17.576Z,54.67
2019-03-23T06:04:48.771Z,54.80
2019-03-23T06:05:20.038Z,54.63
2019-03-23T06:05:51.257Z,54.67
2019-03-23T06:06:22.465Z,54.39
2019-03-23T06:06:53.682Z,54.27
2019-03-23T06:07:24.891Z,54.21
2019-03-23T06:07:56.100Z,54.26
2019-03-23T06:08:27.332Z,54.15
2019-03-23T06:08:58.581Z,54.00
2019-03-23T06:09:29.796Z,53.55
2019-03-23T06:10:01.010Z,53.17
2019-03-23T06:10:32.227Z,53.20
2019-03-23T06:11:03.457Z,53.07
2019-03-23T06:11:34.720Z,52.44
2019-03-23T06:12:05.932Z,52.32
2019-03-23T06:12:37.141Z,52.03
2019-03-23T06:13:08.353Z,51.77
2019-03-23T06:13:39.575Z,51.64
2019-03-23T06:14:10.806Z,51.81
2019-03-23T06:14:42.059Z,51.88
2019-03-23T06:15:13.280Z,51.97
2019-03-23T06:15:44.506Z,52.07
2019-03-23T06:16:17.841Z,52.03
2019-03-23T06:16:48.656Z,51.87
2019-03-23T06:17:19.865Z,51.90
2019-03-23T06:17:51.071Z,51.90
2019-03-23T06:18:22.303Z,51.66
2019-03-23T06:18:53.502Z,51.39
2019-03-23T06:19:24.743Z,51.07
2019-03-23T06:19:55.974Z,51.13
2019-03-23T06:20:27.184Z,51.25
2019-03-23T06:20:58.395Z,51.47
2019-03-23T06:21:29.607Z,51.56
2019-03-23T06:22:00.820Z,51.54
2019-03-23T06:22:32.030Z,51.33
2019-03-23T06:23:03.289Z,51.43
2019-03-23T06:23:34.499Z,51.08
2019-03-23T06:24:05.708Z,51.02
2019-03-23T06:24:36.930Z,50.73
2019-03-23T06:25:08.177Z,51.10
2019-03-23T06:25:39.390Z,51.03
2019-03-23T06:26:10.629Z,51.16
2019-03-23T06:26:41.818Z,51.21
2019-03-23T06:27:13.039Z,51.23
2019-03-23T06:27:44.472Z,50.95
2019-03-23T06:28:15.678Z,50.90
2019-03-23T06:28:46.892Z,50.99
2019-03-23T06:29:18.122Z,51.17
2019-03-23T06:29:49.328Z,51.43
2019-03-23T06:30:20.538Z,51.27
2019-03-23T06:30:51.743Z,51.56
2019-03-23T06:31:22.946Z,51.83
2019-03-23T06:31:54.156Z,51.17
2019-03-23T06:32:25.369Z,51.72
2019-03-23T06:32:56.631Z,52.05
2019-03-23T06:33:27.862Z,52.30
2019-03-23T06:33:59.068Z,52.26
2019-03-23T06:34:30.286Z,51.95
2019-03-23T06:35:01.539Z,51.80
2019-03-23T06:35:32.753Z,51.70
2019-03-23T06:36:04.017Z,51.91
2019-03-23T06:36:35.233Z,51.99
2019-03-23T06:37:06.444Z,52.54
2019-03-23T06:37:37.652Z,52.96
2019-03-23T06:38:08.856Z,52.95
2019-03-23T06:38:40.060Z,53.05
2019-03-23T06:39:11.263Z,52.96
2019-03-23T06:39:42.495Z,52.75
2019-03-23T06:40:13.690Z,52.80
2019-03-23T06:40:44.903Z,53.48
2019-03-23T06:41:16.116Z,53.35
2019-03-23T06:41:47.375Z,53.44
2019-03-23T06:42:18.599Z,53.30